Terminal Aerodrome Forecast
Issued by NWS Sterling, VA

Current Version | Previous Version | Text Only | Print | Product List | Glossary Off
Versions: 1 2 3 4 5 6 7 8 9 10 11 12 13 14 15 16 17 18 19 20 21 22 23 24

160
FTUS41 KLWX 241720
TAFDCA
TAF
KDCA 241720Z 2418/2518 11008G16KT P6SM BKN025 OVC050
     FM250000 11008G16KT P6SM BKN008 OVC025
     FM250200 09010G18KT 2SM RA BR BKN008 OVC015
     FM250800 09008KT 5SM -RA BR BKN008 OVC015
     FM251300 19006KT P6SM BKN015 OVC050
     FM251600 20008KT P6SM BKN030=

USA.gov is the U.S. government's official web portal to all federal, state and local government web resources and services.